Time;durP1;ratioP1;P1;durP2;ratioP2;P2;SDS_P1;SDS_P2;PMS_P1;PMS_P2;Temp;Humidity;BMP_temperature;BMP_pressure;BME280_temperature;BME280_humidity;BME280_pressure;Samples;Min_cycle;Max_cycle;Signal;HPM_P1;HPM_P2
2021/04/20 00:00:07;;;;;;;;;;;;;;;18.98;69.73;100264.09;5014052;28;1659;-56
2021/04/20 00:02:34;;;;;;;;;;;;;;;18.97;69.36;100259.69;5013237;28;2029;-56
2021/04/20 00:05:01;;;;;;;;;;;;;;;18.98;69.70;100268.56;5015997;28;1475;-56
2021/04/20 00:07:29;;;;;;;;;;;;;;;18.96;70.22;100255.34;5015577;28;1394;-56
2021/04/20 00:09:55;;;;;;;;;;;;;;;18.95;69.81;100259.00;5015490;28;1914;-57
2021/04/20 00:12:21;;;;;;;;;;;;;;;18.96;69.71;100258.03;5016372;28;1223;-56
2021/04/20 00:14:47;;;;;;;;;;;;;;;18.95;69.86;100261.69;5016320;28;1714;-55
2021/04/20 00:17:13;;;;;;;;;;;;;;;18.95;69.97;100259.00;5015709;28;1619;-56
2021/04/20 00:19:39;;;;;;;;;;;;;;;18.92;70.09;100250.41;5015045;28;1483;-56
2021/04/20 00:22:06;;;;;;;;;;;;;;;18.95;70.02;100256.31;5016137;28;1563;-58
2021/04/20 00:24:32;;;;;;;;;;;;;;;18.97;69.87;100254.34;5015018;28;1252;-57
2021/04/20 00:26:58;;;;;;;;;;;;;;;19.00;69.69;100255.88;5016467;28;1052;-58
2021/04/20 00:29:24;;;;;;;;;;;;;;;18.98;69.87;100256.03;5015538;28;1906;-56
2021/04/20 00:31:50;;;;;;;;;;;;;;;18.99;69.78;100263.06;5015176;28;1631;-58
2021/04/20 00:34:16;;;;;;;;;;;;;;;18.98;70.21;100248.00;5014898;28;1574;-55
2021/04/20 00:36:42;;;;;;;;;;;;;;;18.97;69.89;100248.97;5014736;28;1553;-58
2021/04/20 00:39:09;;;;;;;;;;;;;;;18.99;69.58;100247.00;5013153;28;1345;-56
2021/04/20 00:41:36;;;;;;;;;;;;;;;18.98;69.39;100239.97;5016323;28;1066;-56
2021/04/20 00:44:02;;;;;;;;;;;;;;;18.97;69.49;100240.94;5015446;28;1781;-58
2021/04/20 00:46:28;;;;;;;;;;;;;;;19.00;69.62;100259.41;5014766;28;1642;-55
2021/04/20 00:48:54;;;;;;;;;;;;;;;18.98;69.57;100242.66;5016280;28;1902;-57
2021/04/20 00:51:20;;;;;;;;;;;;;;;18.99;69.56;100244.31;5015293;28;1626;-55
2021/04/20 00:53:47;;;;;;;;;;;;;;;18.95;69.78;100234.91;5012183;28;1364;-58
2021/04/20 00:56:17;;;;;;;;;;;;;;;18.93;69.96;100242.25;5016088;28;1050;-55
2021/04/20 00:58:43;;;;;;;;;;;;;;;18.92;69.77;100243.25;5015012;28;1842;-56
2021/04/20 01:01:11;;;;;;;;;;;;;;;18.94;70.03;100249.28;5014870;28;1615;-56
2021/04/20 01:03:37;;;;;;;;;;;;;;;18.91;69.89;100244.22;5015252;28;1615;-55
2021/04/20 01:06:03;;;;;;;;;;;;;;;18.91;70.14;100240.72;5014679;28;1328;-56
2021/04/20 01:08:30;;;;;;;;;;;;;;;18.93;70.12;100241.41;5015423;28;1321;-56
2021/04/20 01:10:57;;;;;;;;;;;;;;;18.92;70.11;100248.59;5015402;28;1910;-56
2021/04/20 01:13:25;;;;;;;;;;;;;;;18.91;70.25;100249.59;5014390;28;1407;-55
2021/04/20 01:15:52;;;;;;;;;;;;;;;18.88;70.19;100252.56;5014643;28;1571;-56
2021/04/20 01:18:19;;;;;;;;;;;;;;;18.88;70.19;100239.19;5014730;28;1893;-58
2021/04/20 01:20:48;;;;;;;;;;;;;;;18.89;70.14;100243.53;5012236;28;1324;-55
2021/04/20 01:23:19;;;;;;;;;;;;;;;18.87;70.31;100250.88;5014722;28;1043;-57
2021/04/20 01:25:46;;;;;;;;;;;;;;;18.84;70.50;100243.09;5015066;28;1698;-58
2021/04/20 01:28:12;;;;;;;;;;;;;;;18.89;70.17;100246.22;5015238;28;1718;-57
2021/04/20 01:30:39;;;;;;;;;;;;;;;18.88;70.08;100239.19;5014805;28;1909;-55
2021/04/20 01:33:05;;;;;;;;;;;;;;;18.88;69.55;100250.72;5014751;28;1265;-55
2021/04/20 01:35:33;;;;;;;;;;;;;;;18.86;70.14;100242.00;5014084;28;1320;-58
2021/04/20 01:38:00;;;;;;;;;;;;;;;18.86;70.09;100239.31;5014116;28;1878;-56
2021/04/20 01:40:27;;;;;;;;;;;;;;;18.84;70.30;100237.75;5014636;28;1781;-55
2021/04/20 01:42:53;;;;;;;;;;;;;;;18.83;70.22;100246.78;5013677;28;1638;-58
2021/04/20 01:45:21;;;;;;;;;;;;;;;18.85;70.03;100250.16;5015253;28;968;-58
2021/04/20 01:47:48;;;;;;;;;;;;;;;18.85;69.97;100244.81;5014113;28;1718;-58
2021/04/20 01:50:14;;;;;;;;;;;;;;;18.90;69.87;100261.31;5006806;28;1972;-56
2021/04/20 01:52:41;;;;;;;;;;;;;;;18.87;69.83;100257.06;5014371;28;1672;-55
2021/04/20 01:55:07;;;;;;;;;;;;;;;18.89;69.73;100267.63;5014214;28;1611;-58
2021/04/20 01:57:34;;;;;;;;;;;;;;;18.88;69.37;100250.72;5014867;28;1126;-56
2021/04/20 02:00:01;;;;;;;;;;;;;;;18.87;69.53;100253.53;5013508;28;1585;-58
2021/04/20 04:38:13;;;;;;;;;;;;;;;19.41;68.17;100385.91;5059575;22;10940;-43
2021/04/20 04:40:42;;;;;;;;;;;;;;;19.38;67.96;100383.53;5074196;28;1783;-43
2021/04/20 04:43:08;;;;;;;;;;;;;;;19.37;68.56;100383.69;5066699;28;2074;-43
2021/04/20 04:48:16;;;;;;;;;;;;;;;19.32;67.70;100394.88;5056346;28;1600;-44
2021/04/20 04:50:43;;;;;;;;;;;;;;;19.19;67.84;100380.94;5057437;28;2170;-46
2021/04/20 04:53:16;;;;;;;;;;;;;;;19.18;68.21;100401.53;5069796;28;1561;-46
2021/04/20 04:55:43;;;;;;;;;;;;;;;19.11;68.26;100391.53;5073986;28;1623;-46
2021/04/20 04:58:12;;;;;;;;;;;;;;;19.10;68.26;100398.75;5067060;28;1466;-46
2021/04/20 05:00:42;;;;;;;;;;;;;;;19.08;68.28;100412.28;5075524;28;1258;-44
2021/04/20 05:03:09;;;;;;;;;;;;;;;19.07;68.42;100413.25;5074924;28;1458;-43
2021/04/20 05:05:39;;;;;;;;;;;;;;;19.04;68.39;100410.03;5072547;28;1466;-43
2021/04/20 05:08:05;;;;;;;;;;;;;;;19.03;68.29;100413.69;5068030;28;1730;-46
2021/04/20 05:10:39;;;;;;;;;;;;;;;19.00;68.47;100414.84;5066105;28;2239;-46
2021/04/20 05:13:08;;;;;;;;;;;;;;;19.00;68.53;100420.19;5075297;28;1312;-45
2021/04/20 05:15:55;;;;;;;;;;;;;;;18.99;68.25;100415.81;5068681;28;1646;-45
2021/04/20 05:18:24;;;;;;;;;;;;;;;18.98;68.64;100415.94;5067630;28;1612;-46
2021/04/20 05:20:50;;;;;;;;;;;;;;;18.99;68.67;100409.63;5065789;28;2060;-46
2021/04/20 05:23:17;;;;;;;;;;;;;;;18.98;68.44;100416.81;5067740;28;1885;-46
2021/04/20 05:25:45;;;;;;;;;;;;;;;18.97;68.80;100430.34;5068179;28;2079;-46
2021/04/20 05:28:27;;;;;;;;;;;;;;;18.97;68.62;100428.50;5068915;28;1477;-45
2021/04/20 05:31:14;;;;;;;;;;;;;;;18.97;68.68;100416.97;5067243;28;1972;-45
2021/04/20 05:33:42;;;;;;;;;;;;;;;18.98;68.66;100426.66;5056851;28;1564;-45
2021/04/20 05:36:09;;;;;;;;;;;;;;;18.94;68.86;100419.91;5061084;28;1551;-46
2021/04/20 05:38:37;;;;;;;;;;;;;;;18.93;68.81;100429.78;5066518;28;1520;-46
2021/04/20 05:41:04;;;;;;;;;;;;;;;18.92;68.80;100432.59;5067798;28;2266;-46
2021/04/20 05:43:32;;;;;;;;;;;;;;;18.92;68.77;100433.47;5067508;28;1670;-46
2021/04/20 05:45:59;;;;;;;;;;;;;;;18.92;68.77;100435.28;5063216;28;1980;-47
2021/04/20 05:48:48;;;;;;;;;;;;;;;18.89;68.82;100428.38;5059258;28;1534;-45
2021/04/20 05:51:30;;;;;;;;;;;;;;;18.88;68.69;100427.56;5062040;28;1943;-45
2021/04/20 05:53:56;;;;;;;;;;;;;;;18.93;68.58;100434.31;5058320;28;1350;-45
2021/04/20 05:56:23;;;;;;;;;;;;;;;18.93;68.46;100435.16;5065705;28;1446;-46
2021/04/20 05:58:57;;;;;;;;;;;;;;;18.96;68.62;100437.56;5061161;28;1522;-46
2021/04/20 06:01:28;;;;;;;;;;;;;;;18.98;68.61;100432.91;5058800;28;1521;-46
2021/04/20 06:03:55;;;;;;;;;;;;;;;19.01;68.17;100437.94;5059795;28;1511;-46
2021/04/20 06:06:23;;;;;;;;;;;;;;;19.03;68.17;100448.53;5060972;28;2077;-46
2021/04/20 06:09:06;;;;;;;;;;;;;;;19.05;67.82;100434.00;5067696;28;1265;-46
2021/04/20 06:11:33;;;;;;;;;;;;;;;19.07;67.71;100439.22;5064424;28;1725;-45
2021/04/20 06:14:03;;;;;;;;;;;;;;;19.04;68.39;100442.22;5064535;28;1486;-46
2021/04/20 06:16:30;;;;;;;;;;;;;;;19.03;68.10;100441.34;5071775;28;1603;-46
2021/04/20 06:18:56;;;;;;;;;;;;;;;19.07;68.01;100456.13;5063894;28;1473;-47
2021/04/20 06:21:25;;;;;;;;;;;;;;;19.06;67.70;100441.06;5063780;28;1547;-46
2021/04/20 06:23:51;;;;;;;;;;;;;;;19.04;67.98;100448.41;5064805;28;1316;-46
2021/04/20 06:26:18;;;;;;;;;;;;;;;19.04;68.11;100443.03;5062727;28;1572;-45
2021/04/20 06:28:44;;;;;;;;;;;;;;;19.00;68.58;100452.34;5062706;28;1681;-46
2021/04/20 06:31:20;;;;;;;;;;;;;;;19.01;68.54;100459.41;5066761;28;1902;-46
2021/04/20 06:33:48;;;;;;;;;;;;;;;19.01;68.31;100461.25;5060790;28;1545;-46
2021/04/20 06:38:55;;;;;;;;;;;;;;;19.00;67.93;100449.69;5065880;28;2328;-45
2021/04/20 06:41:23;;;;;;;;;;;;;;;18.83;68.17;100450.41;5066688;28;1649;-44
2021/04/20 06:43:53;;;;;;;;;;;;;;;18.83;67.88;100451.22;5066569;28;1511;-44
2021/04/20 06:46:23;;;;;;;;;;;;;;;18.89;67.77;100465.91;5065261;28;1477;-45
2021/04/20 06:48:52;;;;;;;;;;;;;;;18.88;68.15;100464.22;5067951;28;1773;-43
2021/04/20 06:51:19;;;;;;;;;;;;;;;18.94;67.85;100462.78;5067050;28;1968;-45
2021/04/20 06:53:48;;;;;;;;;;;;;;;18.94;67.99;100471.69;5073548;28;1525;-45
2021/04/20 06:56:23;;;;;;;;;;;;;;;18.93;68.18;100464.63;5070767;28;1696;-44
2021/04/20 06:58:54;;;;;;;;;;;;;;;18.94;68.45;100471.69;5064896;28;1620;-44
2021/04/20 07:01:23;;;;;;;;;;;;;;;18.98;68.46;100473.09;5063542;28;2009;-45
2021/04/20 07:04:06;;;;;;;;;;;;;;;19.02;68.06;100461.09;5064152;28;1689;-45
2021/04/20 07:06:34;;;;;;;;;;;;;;;19.05;67.97;100476.03;5059962;28;1751;-45
2021/04/20 07:09:03;;;;;;;;;;;;;;;19.04;68.43;100469.84;5065838;28;1823;-46
2021/04/20 07:11:30;;;;;;;;;;;;;;;19.05;68.48;100471.50;5066064;28;1892;-45
2021/04/20 07:14:01;;;;;;;;;;;;;;;19.03;67.83;100484.22;5063392;28;1688;-45
2021/04/20 07:16:35;;;;;;;;;;;;;;;18.85;68.60;100477.88;5064780;28;1946;-45
2021/04/20 07:19:20;;;;;;;;;;;;;;;18.71;68.60;100475.59;5056956;28;1604;-45
2021/04/20 07:21:52;;;;;;;;;;;;;;;18.56;67.14;100486.75;5044185;28;1782;-44
2021/04/20 07:24:19;;;;;;;;;;;;;;;18.52;68.68;100493.34;5063480;28;1804;-45
2021/04/20 07:27:06;;;;;;;;;;;;;;;18.46;66.36;100507.28;5065090;28;2031;-46
2021/04/20 07:29:39;;;;;;;;;;;;;;;18.44;66.15;100494.06;5070866;28;1906;-45
2021/04/20 07:35:11;;;;;;;;;;;;;;;18.49;67.16;100504.34;5064515;28;1818;-44
2021/04/20 07:37:41;;;;;;;;;;;;;;;18.58;66.95;100502.66;5060193;28;1505;-44
2021/04/20 07:40:22;;;;;;;;;;;;;;;18.61;67.17;100491.66;5071858;28;1482;-45
2021/04/20 07:42:56;;;;;;;;;;;;;;;18.61;67.10;100500.53;5061080;28;1745;-45
2021/04/20 07:45:24;;;;;;;;;;;;;;;18.68;67.19;100496.34;5068672;28;1929;-45
2021/04/20 07:47:53;;;;;;;;;;;;;;;18.73;67.19;100509.28;5062766;28;2190;-44
2021/04/20 07:50:22;;;;;;;;;;;;;;;18.81;67.00;100505.94;5071407;28;2145;-45
2021/04/20 07:53:17;;;;;;;;;;;;;;;18.80;67.45;100504.25;5060195;28;1930;-45
2021/04/20 07:55:51;;;;;;;;;;;;;;;18.83;67.22;100525.41;5053891;28;1613;-45
2021/04/20 07:58:21;;;;;;;;;;;;;;;18.87;67.91;100510.75;5062683;28;1583;-44
2021/04/20 08:00:49;;;;;;;;;;;;;;;18.89;67.56;100508.78;5051097;28;1971;-44
2021/04/20 08:03:26;;;;;;;;;;;;;;;18.96;67.33;100515.25;5054476;28;1518;-45
2021/04/20 08:09:06;;;;;;;;;;;;;;;19.13;66.45;100527.09;5051600;28;1473;-45
2021/04/20 08:14:29;;;;;;;;;;;;;;;19.24;66.29;100531.47;5061603;28;1844;-45
2021/04/20 08:17:08;;;;;;;;;;;;;;;19.39;65.59;100529.19;5058939;28;1595;-46
2021/04/20 08:19:43;;;;;;;;;;;;;;;19.45;65.75;100542.84;5061953;28;1518;-45
2021/04/20 08:22:11;;;;;;;;;;;;;;;19.53;66.42;100533.25;5057257;28;1466;-45
2021/04/20 08:24:40;;;;;;;;;;;;;;;19.61;66.19;100536.03;5059478;28;1538;-45
2021/04/20 08:27:09;;;;;;;;;;;;;;;19.59;66.45;100535.34;5055560;28;1501;-46
2021/04/20 08:29:37;;;;;;;;;;;;;;;19.65;66.17;100526.72;5053505;28;1898;-45
2021/04/20 08:32:05;;;;;;;;;;;;;;;19.75;66.15;100538.28;5055858;28;1521;-45
2021/04/20 08:34:36;;;;;;;;;;;;;;;19.83;66.43;100545.63;5050174;28;2132;-45
2021/04/20 08:37:09;;;;;;;;;;;;;;;19.92;66.09;100543.91;5060023;28;1500;-45
2021/04/20 08:39:39;;;;;;;;;;;;;;;19.95;65.84;100546.28;5058523;28;1487;-45
2021/04/20 08:42:09;;;;;;;;;;;;;;;19.94;66.78;100541.91;5065250;28;1687;-45
2021/04/20 08:47:47;;;;;;;;;;;;;;;19.85;66.57;100552.53;5058056;28;2653;-45
2021/04/20 08:50:21;;;;;;;;;;;;;;;19.77;66.40;100546.19;5063340;28;1979;-46
2021/04/20 08:52:52;;;;;;;;;;;;;;;19.72;67.06;100543.13;5062954;28;1538;-45
2021/04/20 08:55:28;;;;;;;;;;;;;;;19.68;67.06;100547.91;5065192;28;1583;-45
2021/04/20 08:58:22;;;;;;;;;;;;;;;19.67;66.51;100548.88;5058519;28;1734;-44
2021/04/20 09:00:57;;;;;;;;;;;;;;;19.68;66.77;100567.53;5060221;28;1552;-45
2021/04/20 09:03:26;;;;;;;;;;;;;;;19.72;66.44;100557.38;5062224;28;1477;-45
2021/04/20 09:05:56;;;;;;;;;;;;;;;19.79;66.61;100558.47;5055499;28;2050;-45
2021/04/20 09:11:43;;;;;;;;;;;;;;;19.77;67.35;100551.56;5063370;28;2357;-45
2021/04/20 09:14:29;;;;;;;;;;;;;;;19.71;67.12;100558.34;5068882;28;1422;-45
2021/04/20 09:19:53;;;;;;;;;;;;;;;19.75;67.76;100559.75;5060691;28;2172;-45
2021/04/20 09:22:21;;;;;;;;;;;;;;;19.71;67.69;100555.69;5045342;28;2044;-45
2021/04/20 09:24:57;;;;;;;;;;;;;;;19.74;68.12;100557.25;5068750;28;1398;-44
2021/04/20 09:27:27;;;;;;;;;;;;;;;19.77;68.37;100563.13;5056217;28;1743;-46
2021/04/20 09:29:58;;;;;;;;;;;;;;;19.74;68.99;100547.34;5055694;28;1898;-45
2021/04/20 09:32:29;;;;;;;;;;;;;;;19.78;68.75;100556.78;5057382;28;1712;-46
2021/04/20 09:34:57;;;;;;;;;;;;;;;19.73;68.90;100558.22;5057199;28;1602;-45
2021/04/20 09:37:24;;;;;;;;;;;;;;;19.79;69.11;100561.16;5060425;28;1794;-45
2021/04/20 09:39:53;;;;;;;;;;;;;;;19.80;69.15;100562.03;5066369;28;1466;-45
2021/04/20 09:42:20;;;;;;;;;;;;;;;19.76;69.66;100556.09;5060360;28;1470;-46
2021/04/20 09:44:51;;;;;;;;;;;;;;;19.78;69.27;100554.13;5067030;28;1568;-45
2021/04/20 09:47:32;;;;;;;;;;;;;;;19.75;69.25;100554.38;5060691;28;1957;-46
2021/04/20 09:50:04;;;;;;;;;;;;;;;19.77;68.42;100546.19;5048125;28;1902;-45
2021/04/20 09:52:39;;;;;;;;;;;;;;;19.73;69.05;100551.00;5067768;28;2094;-46
2021/04/20 09:55:10;;;;;;;;;;;;;;;19.70;69.45;100550.44;5063108;28;1585;-46
2021/04/20 09:57:42;;;;;;;;;;;;;;;19.68;70.03;100566.69;5053031;28;1162;-45
2021/04/20 10:00:10;;;;;;;;;;;;;;;19.70;69.80;100559.34;5058580;28;1990;-46
2021/04/20 10:02:40;;;;;;;;;;;;;;;19.73;70.19;100564.41;5058304;28;1873;-46
2021/04/20 10:05:11;;;;;;;;;;;;;;;19.75;69.56;100570.50;5052442;28;1820;-45
2021/04/20 10:07:41;;;;;;;;;;;;;;;19.78;69.75;100572.06;5056462;28;1683;-45
2021/04/20 10:10:10;;;;;;;;;;;;;;;19.75;69.74;100572.34;5060332;28;1914;-46
2021/04/20 10:12:48;;;;;;;;;;;;;;;19.65;69.68;100575.84;5056991;28;1170;-46
2021/04/20 10:15:16;;;;;;;;;;;;;;;19.65;68.75;100558.91;5056287;28;1624;-45
2021/04/20 10:17:47;;;;;;;;;;;;;;;19.68;68.89;100559.47;5064810;28;1569;-46
2021/04/20 10:20:19;;;;;;;;;;;;;;;19.69;69.07;100554.94;5064602;28;1720;-45
2021/04/20 10:22:48;;;;;;;;;;;;;;;19.66;68.99;100561.44;5057689;28;1696;-46
2021/04/20 10:25:26;;;;;;;;;;;;;;;19.66;69.20;100568.66;5060669;28;1517;-46
2021/04/20 10:27:58;;;;;;;;;;;;;;;19.64;68.75;100557.22;5067121;28;1538;-47
2021/04/20 10:30:29;;;;;;;;;;;;;;;19.62;69.16;100559.22;5056686;28;1906;-45
2021/04/20 10:32:55;;;;;;;;;;;;;;;19.63;69.23;100561.72;5052827;28;1387;-45
2021/04/20 10:35:43;;;;;;;;;;;;;;;19.60;69.02;100548.63;5067880;28;1932;-45
2021/04/20 10:38:19;;;;;;;;;;;;;;;19.64;69.15;100565.28;5061154;28;1459;-44
2021/04/20 10:40:46;;;;;;;;;;;;;;;19.58;69.47;100566.69;5051595;28;1574;-45
2021/04/20 10:43:19;;;;;;;;;;;;;;;19.54;69.38;100569.81;5053426;28;1676;-46
2021/04/20 10:45:55;;;;;;;;;;;;;;;19.48;69.41;100560.50;5055948;28;1379;-45
2021/04/20 10:48:33;;;;;;;;;;;;;;;19.50;69.58;100558.53;5066009;28;1446;-46
2021/04/20 10:51:02;;;;;;;;;;;;;;;19.53;70.10;100555.53;5065676;28;1902;-46
2021/04/20 10:53:31;;;;;;;;;;;;;;;19.53;70.14;100554.69;5062093;28;1369;-46
2021/04/20 10:56:02;;;;;;;;;;;;;;;19.53;69.10;100554.69;5054164;28;1687;-47
2021/04/20 10:58:55;;;;;;;;;;;;;;;19.50;68.90;100558.53;5057772;28;1522;-46
2021/04/20 11:01:24;;;;;;;;;;;;;;;19.45;67.35;100553.56;5059240;28;1747;-46
2021/04/20 11:03:54;;;;;;;;;;;;;;;19.42;68.10;100564.59;5054103;28;1580;-46
2021/04/20 11:06:54;;;;;;;;;;;;;;;19.49;68.49;100556.81;5051818;28;1742;-45
2021/04/20 11:09:38;;;;;;;;;;;;;;;19.47;68.54;100540.03;5049418;28;1364;-45
2021/04/20 11:12:19;;;;;;;;;;;;;;;19.51;67.96;100546.78;5053721;28;1720;-45
2021/04/20 11:14:49;;;;;;;;;;;;;;;19.46;67.87;100549.09;5054230;28;2234;-46
2021/04/20 11:17:30;;;;;;;;;;;;;;;19.45;67.82;100556.25;5054020;28;1541;-46
2021/04/20 11:20:07;;;;;;;;;;;;;;;19.53;68.29;100546.66;5062083;28;1485;-45
2021/04/20 11:22:38;;;;;;;;;;;;;;;19.53;68.21;100549.34;5064747;28;2269;-46
2021/04/20 11:25:32;;;;;;;;;;;;;;;19.54;68.29;100548.38;5063021;28;2704;-45
2021/04/20 11:28:26;;;;;;;;;;;;;;;19.57;68.47;100548.06;5046407;28;1969;-45
2021/04/20 11:31:01;;;;;;;;;;;;;;;19.53;67.78;100546.66;5064919;28;1988;-45
2021/04/20 11:33:59;;;;;;;;;;;;;;;19.55;68.81;100547.34;5069146;28;1585;-45
2021/04/20 11:36:29;;;;;;;;;;;;;;;19.51;68.32;100551.31;5065689;28;1651;-47
2021/04/20 11:39:04;;;;;;;;;;;;;;;19.50;68.28;100546.94;5064989;28;10956;-45
2021/04/20 11:41:35;;;;;;;;;;;;;;;19.51;68.26;100540.59;5064985;28;1840;-45
2021/04/20 11:44:04;;;;;;;;;;;;;;;19.52;68.58;100543.13;5065393;28;2437;-45
2021/04/20 11:46:40;;;;;;;;;;;;;;;19.52;68.51;100542.28;5071802;28;1590;-45
2021/04/20 11:49:13;;;;;;;;;;;;;;;19.55;68.19;100523.22;5062712;28;1925;-46
2021/04/20 11:51:42;;;;;;;;;;;;;;;19.57;68.10;100532.81;5062954;28;1983;-46
2021/04/20 11:54:10;;;;;;;;;;;;;;;19.58;68.08;100528.31;5058728;28;1480;-45
2021/04/20 11:56:37;;;;;;;;;;;;;;;19.63;67.43;100534.06;5069390;28;1576;-45
2021/04/20 11:59:05;;;;;;;;;;;;;;;19.62;68.35;100530.53;5066478;28;1518;-45
2021/04/20 12:01:51;;;;;;;;;;;;;;;19.61;68.10;100525.31;5064622;28;1564;-45
2021/04/20 12:04:22;;;;;;;;;;;;;;;19.63;67.68;100523.34;5068406;28;1634;-45
2021/04/20 12:06:50;;;;;;;;;;;;;;;19.59;68.58;100514.72;5065001;28;1504;-45
2021/04/20 12:09:19;;;;;;;;;;;;;;;19.58;68.50;100517.59;5065845;28;1150;-45
2021/04/20 12:11:49;;;;;;;;;;;;;;;19.58;68.74;100512.22;5064164;28;1983;-46
2021/04/20 12:14:17;;;;;;;;;;;;;;;19.57;68.07;100507.81;5064347;28;1652;-45
2021/04/20 12:16:48;;;;;;;;;;;;;;;19.62;68.43;100510.94;5071995;28;1622;-46
2021/04/20 12:19:17;;;;;;;;;;;;;;;19.71;68.39;100510.06;5069044;28;1489;-45
2021/04/20 12:21:46;;;;;;;;;;;;;;;19.67;68.17;100506.78;5068666;28;1368;-45
2021/04/20 12:24:25;;;;;;;;;;;;;;;19.64;68.33;100499.06;5070864;28;1813;-43
2021/04/20 12:26:55;;;;;;;;;;;;;;;19.63;68.70;100501.88;5067385;28;1596;-45
2021/04/20 12:29:30;;;;;;;;;;;;;;;19.64;68.93;100498.22;5069494;28;2282;-45
2021/04/20 12:32:15;;;;;;;;;;;;;;;19.70;68.66;100494.94;5056793;28;1965;-45
2021/04/20 12:34:50;;;;;;;;;;;;;;;19.73;69.06;100491.97;5062893;28;2741;-44
2021/04/20 12:37:37;;;;;;;;;;;;;;;19.74;67.83;100482.97;5055091;28;1664;-45
2021/04/20 12:40:05;;;;;;;;;;;;;;;19.63;68.19;100480.41;5073304;28;1441;-45
2021/04/20 12:42:34;;;;;;;;;;;;;;;19.75;67.26;100484.63;5062410;28;1784;-45
2021/04/20 12:45:36;;;;;;;;;;;;;;;19.79;67.71;100491.38;5063580;28;1438;-48
2021/04/20 12:48:06;;;;;;;;;;;;;;;19.79;68.27;100472.59;5074812;28;1360;-46
2021/04/20 12:50:38;;;;;;;;;;;;;;;19.81;67.90;100473.31;5071206;28;1973;-46
2021/04/20 12:53:19;;;;;;;;;;;;;;;19.68;67.37;100473.63;5070528;28;1626;-45
2021/04/20 12:55:46;;;;;;;;;;;;;;;19.72;67.20;100476.06;5069843;28;1434;-44
2021/04/20 12:58:16;;;;;;;;;;;;;;;19.90;67.30;100466.22;5063690;28;1545;-48
2021/04/20 13:00:42;;;;;;;;;;;;;;;19.89;67.84;100469.88;5056647;28;1719;-44
2021/04/20 13:03:13;;;;;;;;;;;;;;;19.91;67.67;100459.00;5057556;28;1270;-47
2021/04/20 13:05:42;;;;;;;;;;;;;;;19.81;66.53;100477.84;5063109;28;1233;-45
2021/04/20 13:08:09;;;;;;;;;;;;;;;19.78;67.47;100456.69;5063568;28;1962;-46
2021/04/20 13:10:40;;;;;;;;;;;;;;;19.81;67.46;100462.56;5067517;28;1930;-46
2021/04/20 13:13:16;;;;;;;;;;;;;;;19.80;66.98;100463.59;5068525;28;1540;-44
2021/04/20 13:15:44;;;;;;;;;;;;;;;19.78;67.42;100473.63;5067434;28;1518;-45
2021/04/20 13:20:59;;;;;;;;;;;;;;;19.75;66.80;100455.13;5064030;28;1652;-46
2021/04/20 13:23:29;;;;;;;;;;;;;;;19.81;66.80;100459.88;5062795;28;1203;-46
2021/04/20 13:26:00;;;;;;;;;;;;;;;19.79;66.25;100463.72;5063796;28;1587;-45
2021/04/20 13:28:33;;;;;;;;;;;;;;;19.76;66.88;100459.50;5065704;28;2242;-45
2021/04/20 13:31:01;;;;;;;;;;;;;;;19.79;67.21;100451.16;5070398;28;1906;-44
2021/04/20 13:33:30;;;;;;;;;;;;;;;19.78;67.42;100473.63;5068838;28;1530;-45
2021/04/20 13:36:04;;;;;;;;;;;;;;;19.73;66.91;100462.47;5062794;28;1554;-45
2021/04/20 13:38:32;;;;;;;;;;;;;;;19.68;66.22;100470.09;5057047;28;1652;-45
2021/04/20 13:41:01;;;;;;;;;;;;;;;19.80;67.69;100468.94;5056196;28;1560;-46
2021/04/20 13:43:29;;;;;;;;;;;;;;;19.80;67.33;100463.59;5062159;28;1638;-45
2021/04/20 13:45:56;;;;;;;;;;;;;;;19.75;66.97;100468.53;5068078;28;1665;-45
2021/04/20 13:48:24;;;;;;;;;;;;;;;19.72;67.74;100463.47;5063805;28;2069;-44
2021/04/20 13:50:51;;;;;;;;;;;;;;;19.75;67.71;100451.59;5065414;28;1993;-46
2021/04/20 13:53:27;;;;;;;;;;;;;;;19.73;66.66;100465.16;5053779;28;1593;-45
2021/04/20 13:56:09;;;;;;;;;;;;;;;19.68;66.75;100472.78;5064431;28;2030;-45
2021/04/20 13:58:46;;;;;;;;;;;;;;;19.67;67.59;100460.34;5051272;28;1537;-45
2021/04/20 14:01:13;;;;;;;;;;;;;;;19.66;66.58;100470.25;5066620;28;1798;-45
2021/04/20 14:03:41;;;;;;;;;;;;;;;19.84;66.50;100473.03;5062585;28;1517;-45
2021/04/20 14:06:09;;;;;;;;;;;;;;;19.86;66.12;100464.84;5062566;28;1604;-45
2021/04/20 14:08:37;;;;;;;;;;;;;;;19.86;66.63;100479.09;5064240;28;1612;-46
2021/04/20 14:11:05;;;;;;;;;;;;;;;19.89;66.30;100475.25;5062194;28;1979;-45
2021/04/20 14:13:37;;;;;;;;;;;;;;;19.86;66.73;100464.84;5062766;28;1398;-45
2021/04/20 14:16:06;;;;;;;;;;;;;;;19.88;66.11;100473.59;5062393;28;1555;-46
2021/04/20 14:18:45;;;;;;;;;;;;;;;19.91;66.82;100457.16;5063862;28;1502;-45
2021/04/20 14:21:14;;;;;;;;;;;;;;;19.90;66.45;100468.91;5076253;28;1586;-46
2021/04/20 14:23:43;;;;;;;;;;;;;;;19.96;66.88;100472.84;5066167;28;2100;-45
2021/04/20 14:26:14;;;;;;;;;;;;;;;19.94;66.49;100466.78;5065727;28;1803;-45
2021/04/20 14:28:40;;;;;;;;;;;;;;;19.95;67.27;100484.56;5066215;28;1946;-46
2021/04/20 14:31:08;;;;;;;;;;;;;;;19.92;66.92;100476.81;5066734;28;2116;-45
2021/04/20 14:33:40;;;;;;;;;;;;;;;19.85;67.41;100471.19;5059193;28;1815;-46
2021/04/20 14:36:09;;;;;;;;;;;;;;;19.85;67.78;100484.59;5068091;28;1570;-46
2021/04/20 14:38:38;;;;;;;;;;;;;;;19.87;67.14;100487.97;5064877;28;1535;-45
2021/04/20 14:41:05;;;;;;;;;;;;;;;19.70;67.89;100468.13;5064798;28;1726;-45
2021/04/20 14:43:33;;;;;;;;;;;;;;;19.80;67.73;100485.06;5058223;28;1871;-46
2021/04/20 14:46:03;;;;;;;;;;;;;;;19.77;67.35;100482.66;5066131;28;1562;-45
2021/04/20 14:48:30;;;;;;;;;;;;;;;19.72;67.44;100484.94;5054127;28;1907;-45
2021/04/20 14:50:58;;;;;;;;;;;;;;;19.70;67.34;100481.53;5062711;28;1918;-45
2021/04/20 14:53:29;;;;;;;;;;;;;;;19.68;67.85;100492.41;5071611;28;1864;-45
2021/04/20 14:55:59;;;;;;;;;;;;;;;19.71;68.18;100504.69;5073433;28;1570;-45
2021/04/20 14:58:26;;;;;;;;;;;;;;;19.75;67.81;100500.72;5072959;28;1675;-40
2021/04/20 15:00:57;;;;;;;;;;;;;;;19.72;66.84;100492.16;5074208;28;1812;-45
2021/04/20 15:03:28;;;;;;;;;;;;;;;19.64;67.27;100496.38;5067159;28;1493;-45
2021/04/20 15:08:44;;;;;;;;;;;;;;;19.63;66.82;100502.72;5066812;28;2054;-45
2021/04/20 15:11:13;;;;;;;;;;;;;;;19.66;67.36;100509.66;5068309;28;1986;-45
2021/04/20 15:13:49;;;;;;;;;;;;;;;19.35;62.55;100501.81;5067734;28;1804;-45
2021/04/20 15:16:23;;;;;;;;;;;;;;;19.02;62.73;100505.78;5068540;28;1566;-45
2021/04/20 15:18:50;;;;;;;;;;;;;;;18.89;60.82;100514.13;5062944;28;1553;-45
2021/04/20 15:21:28;;;;;;;;;;;;;;;19.03;64.92;100519.06;5072211;28;1942;-45
2021/04/20 15:23:59;;;;;;;;;;;;;;;19.18;63.65;100508.75;5067606;28;1737;-45
2021/04/20 15:26:33;;;;;;;;;;;;;;;19.28;63.99;100514.94;5063240;28;1748;-45
2021/04/20 15:29:04;;;;;;;;;;;;;;;19.33;63.26;100516.34;5059370;28;1580;-45
2021/04/20 15:31:31;;;;;;;;;;;;;;;19.33;63.83;100493.06;5065914;28;1985;-45
2021/04/20 15:33:58;;;;;;;;;;;;;;;19.33;63.42;100505.63;5059458;28;1674;-46
2021/04/20 15:36:27;;;;;;;;;;;;;;;19.34;63.49;100502.81;5064970;28;2059;-45
2021/04/20 15:39:01;;;;;;;;;;;;;;;19.36;64.23;100500.84;5066527;28;1503;-46
2021/04/20 15:41:32;;;;;;;;;;;;;;;19.37;63.80;100497.13;5065357;28;1675;-46
2021/04/20 15:44:00;;;;;;;;;;;;;;;19.36;64.25;100497.28;5068011;28;1655;-46
2021/04/20 15:46:34;;;;;;;;;;;;;;;19.37;64.17;100499.81;5066802;28;1481;-45
2021/04/20 15:49:09;;;;;;;;;;;;;;;19.38;64.47;100501.53;5066774;28;2047;-45
2021/04/20 15:51:37;;;;;;;;;;;;;;;19.39;64.61;100507.72;5060695;28;1971;-46
2021/04/20 15:54:07;;;;;;;;;;;;;;;19.36;64.66;100499.97;5062917;28;1513;-45
2021/04/20 15:56:35;;;;;;;;;;;;;;;19.38;64.48;100496.16;5065664;28;1590;-46
2021/04/20 15:59:03;;;;;;;;;;;;;;;19.39;64.15;100505.88;5066862;28;1575;-45
2021/04/20 16:01:31;;;;;;;;;;;;;;;19.35;63.78;100504.47;5062089;28;1948;-46
2021/04/20 16:03:58;;;;;;;;;;;;;;;19.36;63.63;100511.56;5060329;28;1738;-47
2021/04/20 16:06:24;;;;;;;;;;;;;;;19.39;63.07;100495.16;5065012;28;1852;-47
2021/04/20 16:08:51;;;;;;;;;;;;;;;19.32;63.19;100506.59;5065312;28;1679;-46
2021/04/20 16:11:21;;;;;;;;;;;;;;;19.23;61.95;100498.44;5070866;28;1979;-47